Time;durP1;ratioP1;P1;durP2;ratioP2;P2;SDS_P1;SDS_P2;PMS_P1;PMS_P2;Temp;Humidity;BMP_temperature;BMP_pressure;BME280_temperature;BME280_humidity;BME280_pressure;Samples;Min_cycle;Max_cycle;Signal;HPM_P1;HPM_P2
2022/01/05 00:01:14;;;;;;;0.50;0.50;;;5.30;99.90;;;;;;4442030;32;20101;-66
2022/01/05 00:03:39;;;;;;;0.20;0.20;;;5.30;99.90;;;;;;4445767;32;20093;-65
2022/01/05 00:06:05;;;;;;;0.25;0.25;;;5.30;99.90;;;;;;4447356;32;20069;-66
2022/01/05 00:08:30;;;;;;;0.50;0.50;;;5.30;99.90;;;;;;4444904;32;20069;-66
2022/01/05 00:10:56;;;;;;;0.30;0.30;;;5.30;99.90;;;;;;4444393;32;20089;-66
2022/01/05 00:13:21;;;;;;;0.30;0.30;;;5.30;99.90;;;;;;4444962;32;20073;-66
2022/01/05 00:15:47;;;;;;;0.35;0.35;;;5.20;99.90;;;;;;4442094;32;20065;-66
2022/01/05 00:18:13;;;;;;;0.30;0.30;;;5.20;99.90;;;;;;4445333;32;20084;-66
2022/01/05 00:20:39;;;;;;;0.25;0.25;;;5.10;99.90;;;;;;4441710;32;20064;-66
2022/01/05 00:23:04;;;;;;;0.30;0.30;;;5.10;99.90;;;;;;4443493;32;20533;-66
2022/01/05 00:25:30;;;;;;;0.30;0.30;;;5.10;99.90;;;;;;4444654;32;20422;-66
2022/01/05 00:27:55;;;;;;;1.02;0.90;;;5.10;99.90;;;;;;4442987;32;20124;-66
2022/01/05 00:30:21;;;;;;;0.30;0.30;;;5.10;99.90;;;;;;4442422;32;20060;-66
2022/01/05 00:32:46;;;;;;;0.30;0.30;;;5.10;99.90;;;;;;4444020;32;20141;-66
2022/01/05 00:35:12;;;;;;;1.05;0.93;;;5.10;99.90;;;;;;4441165;32;20535;-66
2022/01/05 00:37:38;;;;;;;0.30;0.30;;;5.10;99.90;;;;;;4444221;32;20090;-66
2022/01/05 00:40:04;;;;;;;3.00;0.52;;;5.10;99.90;;;;;;4442893;32;20545;-66
2022/01/05 00:42:30;;;;;;;2.35;1.40;;;5.10;99.90;;;;;;4443880;32;20080;-66
2022/01/05 00:44:55;;;;;;;2.42;0.73;;;5.00;99.90;;;;;;4443742;32;20419;-65
2022/01/05 00:47:21;;;;;;;0.30;0.30;;;5.10;99.90;;;;;;4443857;32;20112;-66
2022/01/05 00:49:46;;;;;;;0.55;0.55;;;5.10;99.90;;;;;;4444172;32;20086;-66
2022/01/05 00:52:13;;;;;;;0.30;0.30;;;5.20;99.90;;;;;;4442358;32;20131;-65
2022/01/05 00:54:40;;;;;;;0.47;0.47;;;5.20;99.90;;;;;;4447773;32;20536;-65
2022/01/05 00:57:06;;;;;;;1.85;1.27;;;5.20;99.90;;;;;;4445498;32;20085;-65
2022/01/05 00:59:31;;;;;;;0.30;0.30;;;5.20;99.90;;;;;;4441999;32;20411;-66
2022/01/05 01:01:57;;;;;;;0.75;0.40;;;5.10;99.90;;;;;;4442270;32;20101;-66
2022/01/05 01:04:23;;;;;;;0.25;0.25;;;5.10;99.90;;;;;;4443922;32;20065;-66
2022/01/05 01:06:48;;;;;;;0.32;0.32;;;5.10;99.90;;;;;;4442434;32;20435;-66
2022/01/05 01:09:14;;;;;;;0.20;0.20;;;5.00;99.90;;;;;;4441887;32;20073;-66
2022/01/05 01:11:39;;;;;;;7.87;0.73;;;5.10;99.90;;;;;;4443517;32;20100;-66
2022/01/05 01:14:05;;;;;;;0.20;0.20;;;5.00;99.90;;;;;;4443943;32;20134;-66
2022/01/05 01:16:30;;;;;;;0.52;0.52;;;5.00;99.90;;;;;;4442666;32;20103;-66
2022/01/05 01:18:56;;;;;;;0.60;0.55;;;5.00;99.90;;;;;;4444678;32;20541;-66
2022/01/05 01:21:22;;;;;;;5.25;0.57;;;5.10;99.90;;;;;;4446805;32;20081;-66
2022/01/05 01:23:55;;;;;;;0.30;0.30;;;5.10;99.90;;;;;;4442772;32;20116;-66
2022/01/05 01:26:23;;;;;;;0.40;0.40;;;5.10;99.90;;;;;;4443192;32;20061;-66
2022/01/05 01:28:49;;;;;;;0.30;0.30;;;5.10;99.90;;;;;;4448629;32;20089;-66
2022/01/05 01:31:14;;;;;;;0.20;0.20;;;5.10;99.90;;;;;;4440704;32;20065;-66
2022/01/05 01:33:40;;;;;;;0.30;0.30;;;5.10;99.90;;;;;;4432083;32;20442;-66
2022/01/05 01:36:05;;;;;;;0.40;0.40;;;5.10;99.90;;;;;;4443385;32;20098;-66
2022/01/05 01:38:31;;;;;;;1.20;0.60;;;5.10;99.90;;;;;;4442685;32;20089;-66
2022/01/05 01:40:57;;;;;;;0.30;0.30;;;5.20;99.90;;;;;;4440721;32;20085;-66
2022/01/05 01:43:22;;;;;;;1.10;1.00;;;5.20;99.90;;;;;;4441951;32;20085;-66
2022/01/05 01:45:48;;;;;;;0.30;0.30;;;5.20;99.90;;;;;;4441423;32;20092;-65
2022/01/05 01:48:13;;;;;;;0.40;0.40;;;5.20;99.90;;;;;;4441146;32;20064;-65
2022/01/05 01:50:39;;;;;;;0.40;0.40;;;5.20;99.90;;;;;;4442014;32;20526;-66
2022/01/05 01:53:04;;;;;;;0.37;0.37;;;5.30;99.90;;;;;;4441569;32;20516;-66
2022/01/05 01:55:30;;;;;;;0.30;0.30;;;5.20;99.90;;;;;;4446540;32;20093;-66
2022/01/05 01:57:56;;;;;;;0.37;0.37;;;5.30;99.90;;;;;;4444776;32;20073;-66
2022/01/05 02:00:22;;;;;;;0.32;0.32;;;5.30;99.90;;;;;;4442565;32;20461;-66
2022/01/05 02:02:47;;;;;;;0.30;0.30;;;5.20;99.90;;;;;;4441340;32;20061;-66
2022/01/05 02:05:13;;;;;;;0.20;0.20;;;5.20;99.90;;;;;;4445454;32;20093;-66
2022/01/05 02:07:39;;;;;;;0.20;0.20;;;5.20;99.90;;;;;;4442831;32;20061;-66
2022/01/05 02:10:08;;;;;;;0.40;0.40;;;5.20;99.90;;;;;;4444785;32;20743;-65
2022/01/05 02:12:33;;;;;;;0.30;0.30;;;5.20;99.90;;;;;;4443231;32;20077;-66
2022/01/05 02:14:59;;;;;;;0.30;0.30;;;5.30;99.90;;;;;;4443660;32;20104;-66
2022/01/05 02:17:41;;;;;;;0.30;0.30;;;5.20;99.90;;;;;;4442092;32;20065;-66
2022/01/05 02:20:17;;;;;;;0.37;0.37;;;5.20;99.90;;;;;;4443540;32;20469;-66
2022/01/05 02:22:44;;;;;;;0.40;0.40;;;5.20;99.90;;;;;;4443180;32;20455;-66
2022/01/05 02:25:09;;;;;;;0.40;0.40;;;5.20;99.90;;;;;;4443434;32;20173;-67
2022/01/05 02:27:38;;;;;;;0.30;0.30;;;5.20;99.90;;;;;;4441065;32;20071;-66
2022/01/05 02:30:04;;;;;;;0.40;0.40;;;5.20;99.90;;;;;;4441171;32;20081;-66
2022/01/05 02:32:30;;;;;;;9.63;1.05;;;5.20;99.90;;;;;;4443094;32;20130;-65
2022/01/05 02:34:55;;;;;;;0.28;0.28;;;5.20;99.90;;;;;;4442904;32;20073;-66
2022/01/05 02:37:21;;;;;;;0.30;0.30;;;5.20;99.90;;;;;;4448412;32;20065;-66
2022/01/05 02:39:46;;;;;;;0.98;0.82;;;5.20;99.90;;;;;;4443192;32;20120;-66
2022/01/05 02:42:24;;;;;;;0.40;0.40;;;5.10;99.90;;;;;;4444157;32;20077;-64
2022/01/05 02:44:49;;;;;;;0.30;0.30;;;5.10;99.90;;;;;;4445669;32;20185;-66
2022/01/05 02:47:15;;;;;;;1.75;0.93;;;5.10;99.90;;;;;;4445392;32;20153;-67
2022/01/05 02:49:40;;;;;;;0.30;0.30;;;5.00;99.90;;;;;;4441933;32;20060;-66
2022/01/05 02:52:07;;;;;;;0.60;0.60;;;5.10;99.90;;;;;;4443389;32;20483;-65
2022/01/05 02:54:33;;;;;;;0.30;0.30;;;5.10;99.90;;;;;;4442287;32;20491;-66
2022/01/05 02:56:58;;;;;;;0.30;0.30;;;5.20;99.90;;;;;;4439252;32;20108;-66
2022/01/05 02:59:24;;;;;;;0.70;0.70;;;5.20;99.90;;;;;;4442571;32;20069;-66
2022/01/05 03:01:49;;;;;;;0.30;0.30;;;5.20;99.90;;;;;;4440978;32;20817;-66
2022/01/05 03:04:14;;;;;;;0.30;0.30;;;5.20;99.90;;;;;;4443153;32;20381;-66
2022/01/05 03:06:40;;;;;;;0.40;0.40;;;5.10;99.90;;;;;;4446028;32;20455;-66
2022/01/05 03:09:05;;;;;;;0.30;0.30;;;5.10;99.90;;;;;;4441647;32;20074;-66
2022/01/05 03:11:31;;;;;;;0.43;0.43;;;5.00;99.90;;;;;;4443189;32;20549;-65
2022/01/05 03:13:56;;;;;;;0.30;0.30;;;5.00;99.90;;;;;;4441065;32;20123;-66
2022/01/05 03:16:22;;;;;;;0.30;0.30;;;5.10;99.90;;;;;;4443953;32;20090;-66
2022/01/05 03:18:47;;;;;;;1.08;0.70;;;5.10;99.90;;;;;;4441311;32;20073;-66
2022/01/05 03:21:13;;;;;;;0.32;0.32;;;5.00;99.90;;;;;;4443371;32;20089;-66
2022/01/05 03:23:38;;;;;;;0.30;0.30;;;5.10;99.90;;;;;;4442634;32;20064;-65
2022/01/05 03:26:04;;;;;;;0.40;0.40;;;5.20;99.90;;;;;;4441257;32;20092;-66
2022/01/05 03:28:29;;;;;;;0.30;0.30;;;5.20;99.90;;;;;;4442699;32;20130;-66
2022/01/05 03:30:55;;;;;;;1.85;1.05;;;5.20;99.90;;;;;;4440202;32;20247;-65
2022/01/05 03:33:21;;;;;;;0.82;0.80;;;5.30;99.90;;;;;;4445789;32;20138;-66
2022/01/05 03:35:48;;;;;;;14.40;1.12;;;5.30;99.90;;;;;;4447330;32;20573;-66
2022/01/05 03:38:16;;;;;;;1.27;1.00;;;5.30;99.90;;;;;;4443668;32;20081;-66
2022/01/05 03:40:43;;;;;;;0.30;0.30;;;5.30;99.90;;;;;;4445761;32;20073;-66
2022/01/05 03:43:09;;;;;;;0.20;0.20;;;5.20;99.90;;;;;;4448066;32;20065;-66
2022/01/05 03:45:37;;;;;;;0.30;0.30;;;5.10;99.90;;;;;;4446377;32;20065;-67
2022/01/05 03:48:05;;;;;;;0.55;0.55;;;5.10;99.90;;;;;;4444743;32;20088;-66
2022/01/05 03:50:31;;;;;;;0.60;0.57;;;5.10;99.90;;;;;;4446274;32;20076;-65
2022/01/05 03:52:57;;;;;;;1.55;0.88;;;4.90;99.90;;;;;;4444416;32;20717;-66
2022/01/05 03:55:22;;;;;;;0.30;0.30;;;4.90;99.90;;;;;;4443192;32;20085;-66
2022/01/05 03:57:47;;;;;;;0.30;0.30;;;4.80;99.90;;;;;;4446041;32;20109;-66
2022/01/05 04:00:14;;;;;;;0.43;0.43;;;4.80;99.90;;;;;;4446119;32;20207;-66
2022/01/05 04:02:40;;;;;;;0.55;0.55;;;4.70;99.90;;;;;;4448232;32;20119;-65
2022/01/05 04:05:06;;;;;;;0.32;0.32;;;4.30;99.90;;;;;;4450125;32;20069;-66
2022/01/05 04:07:31;;;;;;;0.30;0.30;;;4.30;99.90;;;;;;4449021;32;20082;-66
2022/01/05 04:09:57;;;;;;;0.22;0.22;;;4.30;99.90;;;;;;4454177;32;20623;-66
2022/01/05 04:12:22;;;;;;;0.28;0.28;;;4.30;99.90;;;;;;4452256;32;20072;-66
2022/01/05 04:14:48;;;;;;;0.30;0.30;;;4.30;99.90;;;;;;4446221;32;20136;-66
2022/01/05 04:17:13;;;;;;;0.22;0.22;;;4.30;99.90;;;;;;4445001;32;20465;-66
2022/01/05 04:19:39;;;;;;;0.40;0.40;;;4.30;99.90;;;;;;4445644;32;20076;-66
2022/01/05 04:22:04;;;;;;;6.47;1.27;;;4.30;99.90;;;;;;4446073;32;20093;-66
2022/01/05 04:24:30;;;;;;;1.25;0.95;;;4.30;99.90;;;;;;4445523;32;20065;-67
2022/01/05 04:26:55;;;;;;;0.30;0.30;;;4.30;99.90;;;;;;4443404;32;20506;-65
2022/01/05 04:29:21;;;;;;;0.88;0.68;;;4.20;99.90;;;;;;4442515;32;20124;-66
2022/01/05 04:31:46;;;;;;;7.43;1.75;;;4.20;99.90;;;;;;4442728;32;20070;-66
2022/01/05 04:34:12;;;;;;;0.20;0.20;;;4.20;99.90;;;;;;4443609;32;82245;-66
2022/01/05 04:36:38;;;;;;;0.55;0.52;;;4.20;99.90;;;;;;4442783;32;20130;-66
2022/01/05 04:39:03;;;;;;;0.50;0.50;;;4.30;99.90;;;;;;4448132;32;20061;-67
2022/01/05 04:41:29;;;;;;;0.30;0.30;;;4.30;99.90;;;;;;4445601;32;20089;-66
2022/01/05 04:43:55;;;;;;;1.55;1.10;;;4.20;99.90;;;;;;4444101;32;20081;-66
2022/01/05 04:46:20;;;;;;;0.50;0.50;;;4.20;99.90;;;;;;4445717;32;20089;-66
2022/01/05 04:48:45;;;;;;;0.28;0.28;;;4.10;99.90;;;;;;4440543;32;20118;-65
2022/01/05 04:51:11;;;;;;;0.88;0.45;;;4.10;99.90;;;;;;4443148;32;20134;-66
2022/01/05 04:53:37;;;;;;;0.30;0.30;;;4.10;99.90;;;;;;4446120;32;20081;-66
2022/01/05 04:56:02;;;;;;;0.30;0.30;;;4.10;99.90;;;;;;4444316;32;20065;-66
2022/01/05 04:58:28;;;;;;;0.52;0.52;;;4.10;99.90;;;;;;4440913;32;20093;-66
2022/01/05 05:00:54;;;;;;;0.37;0.37;;;4.10;99.90;;;;;;4446993;32;20080;-66
2022/01/05 05:03:19;;;;;;;0.30;0.30;;;4.20;99.90;;;;;;4443359;32;20125;-67
2022/01/05 05:05:45;;;;;;;0.30;0.30;;;4.10;99.90;;;;;;4442816;32;20157;-66
2022/01/05 05:08:10;;;;;;;0.30;0.30;;;4.20;99.90;;;;;;4444696;32;20120;-67
2022/01/05 05:10:36;;;;;;;0.52;0.52;;;4.30;99.90;;;;;;4445064;32;20568;-66
2022/01/05 05:13:10;;;;;;;0.30;0.30;;;4.20;99.90;;;;;;4443112;32;20536;-66
2022/01/05 05:15:37;;;;;;;1.75;0.98;;;4.20;99.90;;;;;;4443106;32;21344;-66
2022/01/05 05:18:03;;;;;;;0.30;0.30;;;4.10;99.90;;;;;;4443076;32;20057;-67
2022/01/05 05:20:29;;;;;;;0.60;0.60;;;4.20;99.90;;;;;;4445701;32;20532;-66
2022/01/05 05:22:54;;;;;;;0.43;0.43;;;4.10;99.90;;;;;;4434263;32;20089;-66
2022/01/05 05:25:20;;;;;;;0.40;0.40;;;4.20;99.90;;;;;;4440732;32;20073;-66
2022/01/05 05:27:47;;;;;;;0.20;0.20;;;4.20;99.90;;;;;;4442022;32;20089;-65
2022/01/05 05:30:13;;;;;;;0.50;0.50;;;4.20;99.90;;;;;;4441586;32;20498;-66
2022/01/05 05:32:38;;;;;;;0.30;0.30;;;4.30;99.90;;;;;;4444879;32;20078;-66
2022/01/05 05:35:05;;;;;;;0.30;0.30;;;4.20;99.90;;;;;;4440940;32;20088;-66
2022/01/05 05:37:31;;;;;;;0.30;0.30;;;4.10;99.90;;;;;;4444183;32;20071;-66
2022/01/05 05:39:56;;;;;;;0.85;0.85;;;4.00;99.90;;;;;;4440920;32;20556;-66
2022/01/05 05:42:22;;;;;;;0.40;0.40;;;4.00;99.90;;;;;;4444652;32;20072;-66
2022/01/05 05:44:48;;;;;;;0.40;0.40;;;4.00;99.90;;;;;;4443104;32;20090;-67
2022/01/05 05:47:13;;;;;;;2.53;1.50;;;4.10;99.90;;;;;;4442799;32;20584;-66
2022/01/05 05:49:39;;;;;;;1.33;0.85;;;4.10;99.90;;;;;;4441991;32;20501;-66
2022/01/05 05:52:05;;;;;;;0.37;0.37;;;4.20;99.90;;;;;;4444022;32;20357;-67
2022/01/05 05:54:30;;;;;;;0.30;0.30;;;4.10;99.90;;;;;;4441030;32;20120;-66
2022/01/05 05:56:56;;;;;;;0.40;0.40;;;4.00;99.90;;;;;;4439673;32;20060;-66
2022/01/05 05:59:21;;;;;;;2.97;0.50;;;4.00;99.90;;;;;;4439589;32;20475;-66
2022/01/05 06:01:47;;;;;;;0.30;0.30;;;4.00;99.90;;;;;;4432643;32;20069;-66
2022/01/05 06:04:12;;;;;;;0.30;0.30;;;3.90;99.90;;;;;;4439028;32;20128;-66
2022/01/05 06:06:38;;;;;;;0.30;0.30;;;4.00;99.90;;;;;;4438798;32;20615;-66
2022/01/05 06:09:03;;;;;;;0.30;0.30;;;4.00;99.90;;;;;;4443336;32;20073;-66
2022/01/05 06:11:30;;;;;;;0.40;0.40;;;4.00;99.90;;;;;;4439998;32;20604;-66
2022/01/05 06:13:55;;;;;;;0.40;0.40;;;4.00;99.90;;;;;;4440702;32;20526;-67
2022/01/05 06:16:22;;;;;;;0.30;0.30;;;4.10;99.90;;;;;;4441740;32;20077;-66
2022/01/05 06:18:48;;;;;;;1.55;1.02;;;4.10;99.90;;;;;;4425319;32;20065;-66
2022/01/05 06:21:13;;;;;;;2.47;0.93;;;4.10;99.90;;;;;;4441261;32;20057;-66
2022/01/05 06:23:39;;;;;;;0.30;0.30;;;4.10;99.90;;;;;;4441350;32;20139;-66
2022/01/05 06:26:04;;;;;;;0.35;0.35;;;4.20;99.90;;;;;;4436283;32;20069;-66
2022/01/05 06:28:30;;;;;;;0.40;0.40;;;4.10;99.90;;;;;;4431897;32;20065;-67
2022/01/05 06:30:56;;;;;;;0.40;0.40;;;4.10;99.90;;;;;;4423896;32;20196;-66
2022/01/05 06:33:22;;;;;;;0.30;0.30;;;4.20;99.90;;;;;;4423949;32;20069;-67
2022/01/05 06:35:49;;;;;;;0.30;0.30;;;4.10;99.90;;;;;;4436018;32;20072;-67
2022/01/05 06:38:17;;;;;;;0.40;0.40;;;4.10;99.90;;;;;;4439962;32;20117;-68
2022/01/05 06:40:43;;;;;;;0.60;0.60;;;4.00;99.90;;;;;;4441508;32;20073;-69
2022/01/05 06:43:09;;;;;;;0.30;0.30;;;4.00;99.90;;;;;;4436651;32;20378;-67
2022/01/05 06:45:34;;;;;;;1.00;0.73;;;4.00;99.90;;;;;;4438524;32;20505;-68
2022/01/05 06:48:00;;;;;;;0.30;0.30;;;3.90;99.90;;;;;;4434625;32;20151;-68
2022/01/05 06:50:27;;;;;;;0.30;0.30;;;3.90;99.90;;;;;;4432481;32;20097;-68
2022/01/05 06:52:55;;;;;;;0.30;0.30;;;3.80;99.90;;;;;;4432651;32;20137;-66
2022/01/05 06:55:21;;;;;;;0.30;0.30;;;3.80;99.90;;;;;;4428020;32;20072;-68
2022/01/05 06:57:47;;;;;;;0.28;0.28;;;3.80;99.90;;;;;;4420043;32;20092;-67
2022/01/05 07:00:13;;;;;;;0.30;0.30;;;3.80;99.90;;;;;;4423573;32;20088;-67
2022/01/05 07:02:40;;;;;;;0.20;0.20;;;3.80;99.90;;;;;;4426127;32;20074;-67
2022/01/05 07:05:06;;;;;;;0.55;0.55;;;3.70;99.90;;;;;;4425563;32;20093;-67
2022/01/05 07:07:32;;;;;;;0.30;0.30;;;3.70;99.90;;;;;;4426563;32;20073;-67
2022/01/05 07:09:58;;;;;;;0.30;0.30;;;3.70;99.90;;;;;;4425129;32;20077;-66
2022/01/05 07:12:24;;;;;;;0.30;0.30;;;3.70;99.90;;;;;;4427959;32;20382;-67
2022/01/05 07:14:49;;;;;;;0.40;0.40;;;3.70;99.90;;;;;;4433372;32;20073;-67
2022/01/05 07:17:15;;;;;;;0.40;0.40;;;3.70;99.90;;;;;;4428396;32;20195;-66
2022/01/05 07:19:41;;;;;;;0.30;0.30;;;3.80;99.90;;;;;;4431461;32;20128;-67
2022/01/05 07:22:06;;;;;;;0.80;0.80;;;3.80;99.90;;;;;;4420965;32;20116;-66
2022/01/05 07:24:32;;;;;;;0.30;0.30;;;3.80;99.90;;;;;;4429069;32;20536;-68
2022/01/05 07:26:57;;;;;;;1.15;0.88;;;3.70;99.90;;;;;;4431657;32;20187;-67
2022/01/05 07:29:23;;;;;;;0.43;0.43;;;3.70;99.90;;;;;;4426842;32;20065;-67
2022/01/05 07:31:48;;;;;;;0.30;0.30;;;3.80;99.90;;;;;;4425970;32;20135;-65
2022/01/05 07:34:15;;;;;;;0.40;0.40;;;3.80;99.90;;;;;;4429942;32;20101;-68
2022/01/05 07:36:40;;;;;;;0.35;0.35;;;3.80;99.90;;;;;;4428864;32;20101;-67
2022/01/05 07:39:06;;;;;;;0.20;0.20;;;3.80;99.90;;;;;;4430090;32;20085;-67
2022/01/05 07:41:34;;;;;;;0.40;0.40;;;3.80;99.90;;;;;;4427053;32;20218;-67
2022/01/05 07:43:59;;;;;;;0.43;0.40;;;3.80;99.90;;;;;;4425626;32;20176;-67
2022/01/05 07:46:25;;;;;;;0.30;0.30;;;3.80;99.90;;;;;;4426789;32;20061;-67
2022/01/05 07:48:50;;;;;;;4.40;0.75;;;3.80;99.90;;;;;;4429128;32;20175;-68
2022/01/05 07:51:16;;;;;;;1.92;0.50;;;3.80;99.90;;;;;;4423466;32;20182;-67
2022/01/05 07:53:42;;;;;;;1.92;1.23;;;3.80;99.90;;;;;;4426525;32;21102;-67
2022/01/05 07:56:08;;;;;;;4.65;1.85;;;3.80;99.90;;;;;;4425672;32;20178;-68
2022/01/05 07:58:35;;;;;;;0.40;0.40;;;3.90;99.90;;;;;;4423859;32;20073;-67
2022/01/05 08:01:01;;;;;;;0.30;0.30;;;3.80;99.90;;;;;;4426927;32;20089;-67
2022/01/05 08:03:26;;;;;;;0.40;0.40;;;3.80;99.90;;;;;;4426077;32;20069;-67
2022/01/05 08:05:52;;;;;;;0.62;0.62;;;3.80;99.90;;;;;;4418639;32;20323;-67
2022/01/05 08:08:17;;;;;;;0.68;0.68;;;3.90;99.90;;;;;;4419069;32;20089;-66
2022/01/05 08:10:43;;;;;;;2.08;1.30;;;3.80;99.90;;;;;;4422073;32;20097;-66
2022/01/05 08:13:09;;;;;;;1.55;0.62;;;3.80;99.90;;;;;;4426156;32;20084;-66
2022/01/05 08:15:36;;;;;;;1.20;1.10;;;3.80;99.90;;;;;;4425699;32;20144;-67
2022/01/05 08:18:01;;;;;;;10.02;1.42;;;3.80;99.90;;;;;;4420451;32;20108;-67
2022/01/05 08:20:27;;;;;;;0.30;0.30;;;3.80;99.90;;;;;;4427109;32;20115;-67
2022/01/05 08:22:52;;;;;;;0.40;0.40;;;3.90;99.90;;;;;;4427985;32;20144;-67
2022/01/05 08:25:20;;;;;;;2.40;0.85;;;3.90;99.90;;;;;;4430731;32;20129;-66
2022/01/05 08:27:46;;;;;;;0.88;0.88;;;3.90;99.90;;;;;;4428915;32;20506;-67
2022/01/05 08:30:18;;;;;;;0.30;0.30;;;3.90;99.90;;;;;;4426519;32;20183;-67
2022/01/05 08:32:47;;;;;;;4.78;0.80;;;4.00;99.90;;;;;;4420934;32;20100;-67
2022/01/05 08:35:15;;;;;;;0.30;0.30;;;4.00;99.90;;;;;;4418107;32;20104;-67
2022/01/05 08:37:44;;;;;;;0.30;0.30;;;4.00;99.90;;;;;;4425800;32;20085;-67
2022/01/05 08:40:13;;;;;;;0.62;0.62;;;4.00;99.90;;;;;;4425440;32;20447;-67
2022/01/05 08:42:40;;;;;;;5.93;0.93;;;3.90;99.90;;;;;;4428333;32;20102;-67
2022/01/05 08:45:07;;;;;;;3.30;0.70;;;3.90;99.90;;;;;;4424445;32;20182;-68
2022/01/05 08:47:33;;;;;;;0.30;0.30;;;3.90;99.90;;;;;;4429090;32;20104;-67
2022/01/05 08:49:58;;;;;;;0.32;0.32;;;4.00;99.90;;;;;;4425699;32;20097;-66
2022/01/05 08:52:24;;;;;;;0.30;0.30;;;4.00;99.90;;;;;;4429361;32;20358;-66
2022/01/05 08:54:50;;;;;;;0.80;0.80;;;3.90;99.90;;;;;;4430116;32;20097;-66
2022/01/05 08:57:17;;;;;;;0.95;0.85;;;3.90;99.90;;;;;;4425337;32;20730;-66
2022/01/05 08:59:43;;;;;;;0.30;0.30;;;4.00;99.90;;;;;;4425134;32;20678;-65
2022/01/05 09:02:09;;;;;;;0.32;0.32;;;4.10;99.90;;;;;;4429279;32;20097;-66
2022/01/05 09:04:34;;;;;;;0.43;0.43;;;4.10;99.90;;;;;;4428701;32;20096;-67
2022/01/05 09:07:00;;;;;;;1.27;0.85;;;4.20;99.90;;;;;;4429329;32;20108;-66
2022/01/05 09:09:26;;;;;;;0.40;0.40;;;4.20;99.90;;;;;;4424305;32;20069;-66
2022/01/05 09:11:51;;;;;;;0.73;0.57;;;4.30;99.90;;;;;;4426059;32;20552;-67
2022/01/05 09:14:17;;;;;;;0.88;0.85;;;4.30;99.90;;;;;;4424090;32;20085;-66
2022/01/05 09:16:43;;;;;;;0.68;0.68;;;4.40;99.90;;;;;;4425904;32;20088;-66
2022/01/05 09:19:09;;;;;;;3.72;1.27;;;4.50;99.90;;;;;;4424792;32;20130;-67
2022/01/05 09:21:36;;;;;;;0.37;0.37;;;4.50;99.90;;;;;;4421464;32;20138;-67
2022/01/05 09:24:02;;;;;;;0.77;0.62;;;4.50;99.90;;;;;;4428195;32;21497;-67
2022/01/05 09:26:27;;;;;;;0.68;0.68;;;4.60;99.90;;;;;;4425563;32;20093;-67
2022/01/05 09:28:53;;;;;;;0.30;0.30;;;4.70;99.90;;;;;;4430111;32;20100;-66
2022/01/05 09:31:18;;;;;;;0.50;0.50;;;4.80;99.90;;;;;;4427238;32;20288;-67
2022/01/05 09:33:45;;;;;;;0.30;0.30;;;4.80;99.90;;;;;;4428724;32;20117;-66
2022/01/05 09:36:16;;;;;;;0.22;0.22;;;4.90;99.90;;;;;;4428314;32;20097;-66
2022/01/05 09:41:56;;;;;;;2.08;1.20;;;5.00;99.90;;;;;;4427878;32;20166;-66
2022/01/05 09:42:27;;;;;;;1.35;0.98;;;5.10;99.90;;;;;;4423969;32;20572;-68
2022/01/05 09:44:13;;;;;;;0.30;0.30;;;5.20;99.90;;;;;;4423168;32;20478;-69
2022/01/05 09:46:59;;;;;;;1.00;0.85;;;5.30;99.90;;;;;;4427428;32;20160;-68
2022/01/05 09:49:34;;;;;;;1.77;0.62;;;5.50;99.90;;;;;;4433819;32;20069;-67
2022/01/05 09:52:05;;;;;;;0.68;0.68;;;5.50;99.90;;;;;;4428540;32;20383;-67
2022/01/05 09:54:33;;;;;;;0.30;0.30;;;5.60;99.90;;;;;;4422797;32;20069;-68
2022/01/05 09:56:59;;;;;;;0.57;0.52;;;5.60;99.90;;;;;;4428914;32;20554;-68
2022/01/05 09:59:25;;;;;;;1.70;0.82;;;5.40;99.90;;;;;;4425485;32;20074;-68
2022/01/05 10:01:51;;;;;;;0.40;0.40;;;5.30;99.90;;;;;;4427792;32;20101;-67
2022/01/05 10:04:16;;;;;;;0.47;0.47;;;5.20;99.90;;;;;;4424757;32;20204;-69
2022/01/05 10:06:42;;;;;;;2.03;1.62;;;5.20;99.90;;;;;;4418863;32;20096;-67
2022/01/05 10:09:08;;;;;;;0.57;0.57;;;5.10;99.90;;;;;;4424636;32;20069;-68
2022/01/05 10:11:34;;;;;;;0.60;0.60;;;5.10;99.90;;;;;;4422655;32;20088;-66
2022/01/05 10:14:00;;;;;;;1.27;0.82;;;5.10;99.90;;;;;;4420260;32;20171;-67
2022/01/05 10:16:26;;;;;;;0.30;0.30;;;5.10;99.90;;;;;;4422404;32;20123;-66
2022/01/05 10:18:52;;;;;;;0.65;0.62;;;5.00;99.90;;;;;;4419073;32;20088;-66
2022/01/05 10:21:17;;;;;;;3.03;1.12;;;5.10;99.90;;;;;;4420532;32;20441;-68
2022/01/05 10:23:45;;;;;;;3.45;1.60;;;5.10;99.90;;;;;;4419430;32;20131;-66
2022/01/05 10:26:34;;;;;;;0.37;0.37;;;5.00;99.90;;;;;;4418796;32;20069;-66
2022/01/05 10:29:02;;;;;;;0.65;0.65;;;4.90;99.90;;;;;;4416988;32;20241;-67
2022/01/05 10:31:34;;;;;;;0.30;0.30;;;5.00;99.90;;;;;;4421346;32;20084;-67
2022/01/05 10:34:12;;;;;;;0.50;0.50;;;4.90;99.90;;;;;;4425304;32;20080;-67
2022/01/05 10:36:48;;;;;;;0.45;0.40;;;4.90;99.90;;;;;;4429973;32;20660;-67
2022/01/05 10:39:17;;;;;;;0.50;0.50;;;5.00;99.90;;;;;;4424032;32;20836;-67
2022/01/05 10:41:46;;;;;;;0.52;0.52;;;5.00;99.90;;;;;;4428317;32;20153;-68
2022/01/05 10:44:16;;;;;;;0.30;0.30;;;5.10;99.90;;;;;;4425565;32;20089;-67
2022/01/05 10:46:52;;;;;;;0.30;0.30;;;5.10;99.90;;;;;;4429333;32;21429;-68
2022/01/05 10:49:38;;;;;;;0.30;0.30;;;5.20;99.90;;;;;;4425700;32;20081;-68
2022/01/05 10:52:22;;;;;;;0.75;0.75;;;5.30;99.90;;;;;;4423280;32;20081;-68
2022/01/05 10:54:49;;;;;;;0.30;0.30;;;5.20;99.90;;;;;;4409735;32;20544;-67
2022/01/05 10:57:16;;;;;;;0.20;0.20;;;5.20;99.90;;;;;;4412023;32;20101;-66
2022/01/05 10:59:44;;;;;;;18.00;3.62;;;5.30;99.90;;;;;;4414567;32;20110;-66
2022/01/05 11:02:30;;;;;;;0.40;0.40;;;5.40;99.90;;;;;;4422666;32;20085;-68
2022/01/05 11:05:12;;;;;;;7.85;2.40;;;5.50;99.90;;;;;;4422869;32;20462;-68
2022/01/05 11:07:39;;;;;;;0.30;0.30;;;5.60;99.90;;;;;;4425325;32;20231;-67
2022/01/05 11:10:09;;;;;;;0.30;0.30;;;5.80;99.90;;;;;;4426628;32;20105;-68
2022/01/05 11:12:38;;;;;;;0.30;0.30;;;5.90;99.90;;;;;;4421261;32;20702;-67
2022/01/05 11:15:28;;;;;;;0.43;0.43;;;6.00;99.90;;;;;;4420619;32;20093;-66
2022/01/05 11:18:14;;;;;;;0.30;0.30;;;5.90;99.90;;;;;;4419725;32;21503;-67
2022/01/05 11:20:46;;;;;;;0.40;0.40;;;5.70;99.90;;;;;;4421667;32;20088;-67
2022/01/05 11:23:13;;;;;;;3.00;1.50;;;5.60;99.90;;;;;;4425585;32;20097;-66
2022/01/05 11:25:41;;;;;;;0.43;0.43;;;5.50;99.90;;;;;;4422207;32;20085;-66
2022/01/05 11:28:08;;;;;;;0.62;0.62;;;5.50;99.90;;;;;;4428221;32;20843;-67
2022/01/05 11:30:35;;;;;;;0.40;0.40;;;5.50;99.90;;;;;;4423954;32;20552;-66
2022/01/05 11:33:01;;;;;;;0.60;0.60;;;5.50;99.90;;;;;;4426724;32;20085;-66
2022/01/05 11:35:27;;;;;;;1.73;0.65;;;5.50;99.90;;;;;;4430059;32;20076;-66
2022/01/05 11:37:53;;;;;;;0.30;0.30;;;5.60;99.90;;;;;;4429645;32;20523;-67
2022/01/05 11:40:20;;;;;;;0.37;0.35;;;5.60;99.90;;;;;;4426828;32;20089;-66
2022/01/05 11:42:49;;;;;;;0.65;0.57;;;5.90;99.90;;;;;;4418907;32;20563;-66
2022/01/05 11:45:32;;;;;;;19.95;1.10;;;6.00;99.90;;;;;;4427763;32;20081;-65
2022/01/05 11:48:22;;;;;;;8.30;0.45;;;6.00;99.90;;;;;;4423530;32;20142;-65
2022/01/05 11:50:51;;;;;;;1.55;1.33;;;6.00;99.90;;;;;;4425999;32;20371;-65
2022/01/05 11:53:37;;;;;;;0.65;0.65;;;6.00;99.90;;;;;;4418774;32;20124;-66
2022/01/05 11:56:06;;;;;;;1.17;0.93;;;6.00;99.90;;;;;;4418908;32;20143;-66
2022/01/05 11:58:34;;;;;;;0.28;0.28;;;6.00;99.90;;;;;;4424431;32;20570;-66
2022/01/05 12:01:21;;;;;;;0.45;0.45;;;5.80;99.90;;;;;;4421838;32;20761;-66
2022/01/05 12:03:55;;;;;;;0.30;0.30;;;5.80;99.90;;;;;;4419083;32;20074;-66
2022/01/05 12:06:21;;;;;;;3.10;1.12;;;5.80;99.90;;;;;;4418940;32;20069;-67
2022/01/05 12:08:49;;;;;;;3.00;1.90;;;5.80;99.90;;;;;;4422714;32;20439;-66
2022/01/05 12:11:40;;;;;;;0.52;0.52;;;5.90;99.90;;;;;;4419489;32;20065;-65
2022/01/05 12:14:27;;;;;;;0.40;0.40;;;5.80;99.90;;;;;;4427334;32;20109;-66
2022/01/05 12:17:01;;;;;;;2.35;0.88;;;5.70;99.90;;;;;;4422206;32;20384;-66
2022/01/05 12:19:30;;;;;;;0.47;0.47;;;5.70;99.90;;;;;;4428518;32;20436;-66
2022/01/05 12:21:57;;;;;;;0.43;0.43;;;5.70;99.90;;;;;;4423064;32;20604;-66
2022/01/05 12:25:04;;;;;;;0.30;0.30;;;5.70;99.90;;;;;;4425285;32;20114;-66
2022/01/05 12:27:32;;;;;;;0.30;0.30;;;5.60;99.90;;;;;;4413082;32;20561;-67
2022/01/05 12:30:01;;;;;;;0.30;0.30;;;5.60;99.90;;;;;;4427347;32;20588;-67
2022/01/05 12:32:39;;;;;;;0.20;0.20;;;5.50;99.90;;;;;;4428696;32;20085;-67
2022/01/05 12:35:07;;;;;;;0.30;0.30;;;5.50;99.90;;;;;;4423942;32;20097;-67
2022/01/05 12:37:54;;;;;;;1.00;0.57;;;5.40;99.90;;;;;;4427512;32;20065;-67
2022/01/05 12:40:26;;;;;;;0.30;0.30;;;5.40;99.90;;;;;;4425016;32;20270;-64
2022/01/05 12:43:13;;;;;;;0.35;0.35;;;5.40;99.90;;;;;;4422718;32;20088;-66
2022/01/05 12:46:00;;;;;;;0.30;0.30;;;5.40;99.90;;;;;;4415922;32;20097;-67
2022/01/05 12:48:35;;;;;;;0.50;0.50;;;5.40;99.90;;;;;;4413767;32;20088;-65
2022/01/05 12:51:20;;;;;;;0.50;0.50;;;5.50;99.90;;;;;;4417105;32;20101;-65
2022/01/05 12:54:09;;;;;;;0.40;0.40;;;5.50;99.90;;;;;;4421439;32;20085;-66
2022/01/05 12:56:48;;;;;;;1.45;1.10;;;5.40;99.90;;;;;;4416691;32;20959;-66
2022/01/05 12:59:17;;;;;;;1.30;1.20;;;5.40;99.90;;;;;;4427924;32;20097;-65
2022/01/05 13:01:44;;;;;;;0.30;0.30;;;5.50;99.90;;;;;;4419015;32;20836;-65